Time;durP1;ratioP1;P1;durP2;ratioP2;P2;SDS_P1;SDS_P2;PMS_P1;PMS_P2;Temp;Humidity;BMP_temperature;BMP_pressure;BME280_temperature;BME280_humidity;BME280_pressure;Samples;Min_cycle;Max_cycle;Signal;HPM_P1;HPM_P2
2024/03/20 00:00:57;;;;;;;;;22.00;21.00;;;;;;;;5008372;28;45342;-79
2024/03/20 00:03:26;;;;;;;;;23.00;21.33;;;;;;;;5029085;28;45257;-79
2024/03/20 00:05:51;;;;;;;;;21.67;21.67;;;;;;;;5026585;28;45321;-79
2024/03/20 00:08:17;;;;;;;;;23.67;20.33;;;;;;;;5027630;28;45309;-79
2024/03/20 00:10:42;;;;;;;;;21.33;21.33;;;;;;;;5009398;28;45463;-80
2024/03/20 00:13:08;;;;;;;;;23.00;23.00;;;;;;;;5007985;28;47234;-79
2024/03/20 00:15:33;;;;;;;;;24.00;21.33;;;;;;;;5028026;28;45301;-78
2024/03/20 00:17:59;;;;;;;;;21.33;20.67;;;;;;;;5028205;28;45344;-79
2024/03/20 00:20:25;;;;;;;;;23.67;22.33;;;;;;;;5027006;28;45273;-80
2024/03/20 00:22:51;;;;;;;;;25.00;20.67;;;;;;;;5010389;28;46240;-80
2024/03/20 00:25:16;;;;;;;;;25.33;23.00;;;;;;;;5009716;28;48079;-79
2024/03/20 00:27:41;;;;;;;;;19.67;17.33;;;;;;;;5031512;28;45422;-80
2024/03/20 00:30:07;;;;;;;;;24.33;24.33;;;;;;;;5028202;28;45436;-79
2024/03/20 00:32:32;;;;;;;;;24.00;24.00;;;;;;;;5032084;28;45406;-79
2024/03/20 00:34:57;;;;;;;;;18.33;18.33;;;;;;;;5030745;28;46236;-79
2024/03/20 00:37:23;;;;;;;;;25.67;23.00;;;;;;;;5028802;28;45324;-80
2024/03/20 00:39:48;;;;;;;;;25.00;22.00;;;;;;;;5028728;28;45282;-79
2024/03/20 00:42:13;;;;;;;;;23.33;23.33;;;;;;;;5026301;28;45380;-79
2024/03/20 00:44:38;;;;;;;;;21.67;19.67;;;;;;;;5015658;28;45351;-79
2024/03/20 00:47:04;;;;;;;;;25.00;24.67;;;;;;;;4991543;28;45311;-79
2024/03/20 00:49:29;;;;;;;;;24.00;21.67;;;;;;;;5006705;28;45515;-80
2024/03/20 00:51:55;;;;;;;;;19.00;19.00;;;;;;;;5010952;28;45397;-79
2024/03/20 00:54:20;;;;;;;;;27.00;25.00;;;;;;;;5010588;28;45159;-79
2024/03/20 00:56:45;;;;;;;;;26.00;24.00;;;;;;;;4993747;28;45331;-79
2024/03/20 00:59:14;;;;;;;;;24.00;20.33;;;;;;;;5011785;28;45321;-79
2024/03/20 01:01:39;;;;;;;;;23.67;22.67;;;;;;;;5012752;28;45401;-79
2024/03/20 01:04:05;;;;;;;;;24.00;23.33;;;;;;;;5012110;28;45350;-79
2024/03/20 01:06:30;;;;;;;;;22.33;21.33;;;;;;;;5012157;28;45354;-78
2024/03/20 01:08:55;;;;;;;;;18.00;15.33;;;;;;;;4993945;28;45376;-79
2024/03/20 01:11:20;;;;;;;;;25.67;23.00;;;;;;;;5013184;28;45473;-79
2024/03/20 01:13:45;;;;;;;;;23.00;22.67;;;;;;;;5012390;28;45403;-79
2024/03/20 01:16:11;;;;;;;;;22.00;20.00;;;;;;;;5012179;28;45297;-80
2024/03/20 01:18:36;;;;;;;;;25.33;25.33;;;;;;;;4993961;28;45582;-79
2024/03/20 01:21:03;;;;;;;;;27.00;25.67;;;;;;;;4993427;28;45837;-80
2024/03/20 01:23:29;;;;;;;;;23.33;22.33;;;;;;;;5012992;28;46559;-80
2024/03/20 01:25:54;;;;;;;;;17.67;17.67;;;;;;;;5006976;28;45294;-79
2024/03/20 01:28:20;;;;;;;;;26.00;23.00;;;;;;;;5009500;28;45250;-79
2024/03/20 01:30:45;;;;;;;;;28.67;24.00;;;;;;;;4996989;28;46890;-79
2024/03/20 01:33:10;;;;;;;;;17.67;17.67;;;;;;;;4995898;28;47483;-79
2024/03/20 01:35:36;;;;;;;;;26.00;26.00;;;;;;;;4997109;28;45302;-79
2024/03/20 01:38:01;;;;;;;;;31.67;28.00;;;;;;;;5014486;28;45438;-79
2024/03/20 01:40:26;;;;;;;;;25.00;25.00;;;;;;;;5013957;28;45599;-79
2024/03/20 01:42:55;;;;;;;;;25.33;23.67;;;;;;;;5011515;28;45268;-79
2024/03/20 01:45:21;;;;;;;;;22.67;21.00;;;;;;;;4993597;28;45621;-79
2024/03/20 01:47:47;;;;;;;;;17.00;17.00;;;;;;;;5014243;28;45285;-79
2024/03/20 01:50:15;;;;;;;;;20.67;19.67;;;;;;;;5014996;28;45328;-79
2024/03/20 01:52:51;;;;;;;;;23.67;20.67;;;;;;;;5010443;28;46580;-79
2024/03/20 01:55:18;;;;;;;;;19.67;18.00;;;;;;;;4994272;28;45189;-79
2024/03/20 01:57:43;;;;;;;;;22.33;22.33;;;;;;;;5007077;28;45386;-79
2024/03/20 02:00:12;;;;;;;;;20.67;20.67;;;;;;;;5012384;28;46285;-79
2024/03/20 02:02:37;;;;;;;;;21.67;21.33;;;;;;;;5031407;28;45342;-79
2024/03/20 02:05:02;;;;;;;;;25.33;21.67;;;;;;;;5012703;28;45375;-79
2024/03/20 02:07:28;;;;;;;;;18.67;18.33;;;;;;;;5014234;28;45363;-79
2024/03/20 02:09:53;;;;;;;;;26.33;23.67;;;;;;;;5011884;28;46937;-79
2024/03/20 02:12:18;;;;;;;;;22.33;21.00;;;;;;;;5011033;28;47246;-79
2024/03/20 02:14:43;;;;;;;;;23.67;21.33;;;;;;;;5033716;28;45291;-79
2024/03/20 02:17:08;;;;;;;;;24.00;22.67;;;;;;;;5031641;28;45430;-79
2024/03/20 02:19:33;;;;;;;;;27.00;21.67;;;;;;;;5012466;28;46238;-79
2024/03/20 02:21:59;;;;;;;;;19.67;17.67;;;;;;;;5031583;28;45479;-79
2024/03/20 02:24:24;;;;;;;;;22.33;21.67;;;;;;;;5033504;28;45195;-79
2024/03/20 02:26:49;;;;;;;;;25.33;23.33;;;;;;;;5012240;28;45366;-79
2024/03/20 02:29:14;;;;;;;;;24.33;24.00;;;;;;;;5033924;28;45203;-80
2024/03/20 02:31:39;;;;;;;;;21.00;21.00;;;;;;;;5014524;28;48136;-79
2024/03/20 02:34:05;;;;;;;;;23.00;21.00;;;;;;;;5031959;28;45308;-80
2024/03/20 02:36:30;;;;;;;;;24.67;22.00;;;;;;;;5030313;28;45503;-79
2024/03/20 02:38:57;;;;;;;;;24.67;21.33;;;;;;;;5030905;28;45208;-79
2024/03/20 02:41:23;;;;;;;;;21.67;19.33;;;;;;;;5012408;28;47537;-79
2024/03/20 02:43:48;;;;;;;;;25.33;24.00;;;;;;;;5029252;28;45270;-79
2024/03/20 02:46:14;;;;;;;;;23.67;23.33;;;;;;;;5028366;28;45340;-79
2024/03/20 02:48:39;;;;;;;;;20.67;20.67;;;;;;;;5006762;28;47327;-79
2024/03/20 02:51:04;;;;;;;;;24.33;21.67;;;;;;;;5008897;28;47889;-79
2024/03/20 02:53:29;;;;;;;;;15.33;13.00;;;;;;;;5009279;28;45793;-79
2024/03/20 02:55:54;;;;;;;;;23.33;21.67;;;;;;;;5028298;28;45349;-79
2024/03/20 02:58:20;;;;;;;;;23.00;23.00;;;;;;;;5010384;28;45469;-79
2024/03/20 03:00:45;;;;;;;;;23.33;20.67;;;;;;;;5010103;28;46516;-79
2024/03/20 03:03:10;;;;;;;;;20.67;20.67;;;;;;;;4987638;28;45434;-79
2024/03/20 03:05:36;;;;;;;;;23.67;19.33;;;;;;;;5006515;28;45511;-79
2024/03/20 03:08:01;;;;;;;;;23.33;19.33;;;;;;;;5003433;28;45695;-79
2024/03/20 03:10:27;;;;;;;;;23.00;23.00;;;;;;;;5006796;28;45560;-79
2024/03/20 03:12:52;;;;;;;;;24.67;22.00;;;;;;;;5010326;28;45382;-79
2024/03/20 03:15:18;;;;;;;;;23.33;23.33;;;;;;;;5010095;28;45523;-79
2024/03/20 03:17:45;;;;;;;;;18.67;18.67;;;;;;;;5006720;28;45392;-79
2024/03/20 03:20:21;;;;;;;;;25.33;23.33;;;;;;;;4988122;28;48475;-79
2024/03/20 03:22:46;;;;;;;;;22.67;20.67;;;;;;;;5001041;28;45246;-79
2024/03/20 03:25:12;;;;;;;;;21.33;21.33;;;;;;;;5006449;28;45652;-79
2024/03/20 03:27:37;;;;;;;;;15.67;15.67;;;;;;;;4993280;28;46270;-79
2024/03/20 03:30:04;;;;;;;;;21.00;19.67;;;;;;;;4988061;28;46926;-79
2024/03/20 03:32:29;;;;;;;;;22.00;20.00;;;;;;;;5010093;28;45357;-79
2024/03/20 03:34:55;;;;;;;;;18.33;17.67;;;;;;;;5008017;28;45811;-79
2024/03/20 03:37:20;;;;;;;;;25.67;25.00;;;;;;;;5009268;28;45325;-79
2024/03/20 03:39:45;;;;;;;;;27.33;22.33;;;;;;;;5007421;28;45496;-79
2024/03/20 03:42:14;;;;;;;;;22.33;21.67;;;;;;;;5012682;28;45467;-79
2024/03/20 03:44:40;;;;;;;;;19.67;18.33;;;;;;;;4995690;28;45355;-79
2024/03/20 03:47:05;;;;;;;;;22.00;22.00;;;;;;;;4991056;28;46191;-79
2024/03/20 03:49:30;;;;;;;;;20.67;18.67;;;;;;;;5008206;28;46488;-79
2024/03/20 03:51:55;;;;;;;;;22.33;20.00;;;;;;;;4995184;28;45347;-79
2024/03/20 03:54:20;;;;;;;;;24.33;22.33;;;;;;;;4987773;28;45513;-79
2024/03/20 03:56:46;;;;;;;;;20.00;18.33;;;;;;;;4992912;28;47249;-79
2024/03/20 03:59:11;;;;;;;;;21.33;19.00;;;;;;;;5025551;28;45736;-79
2024/03/20 04:01:36;;;;;;;;;20.00;19.67;;;;;;;;5025129;28;45313;-79
2024/03/20 04:04:01;;;;;;;;;22.67;22.67;;;;;;;;5029817;28;45337;-79
2024/03/20 04:06:26;;;;;;;;;23.00;21.67;;;;;;;;5028390;28;45226;-79
2024/03/20 04:08:51;;;;;;;;;27.33;25.33;;;;;;;;5009204;28;48297;-79
2024/03/20 04:11:20;;;;;;;;;28.00;27.00;;;;;;;;5026558;28;45300;-79
2024/03/20 04:13:45;;;;;;;;;31.33;27.33;;;;;;;;5025564;28;45305;-79
2024/03/20 04:16:11;;;;;;;;;26.00;25.67;;;;;;;;5031691;28;45202;-79
2024/03/20 04:18:36;;;;;;;;;29.00;28.00;;;;;;;;5015309;28;48011;-80
2024/03/20 04:21:01;;;;;;;;;30.67;28.67;;;;;;;;5027621;28;45269;-79
2024/03/20 04:23:26;;;;;;;;;26.67;25.33;;;;;;;;5009253;28;45534;-79
2024/03/20 04:25:52;;;;;;;;;36.00;29.67;;;;;;;;5013546;28;47261;-79
2024/03/20 04:28:17;;;;;;;;;26.67;26.67;;;;;;;;5032651;28;46228;-79
2024/03/20 04:30:42;;;;;;;;;20.00;19.33;;;;;;;;5018009;28;45357;-79
2024/03/20 04:33:07;;;;;;;;;31.75;31.75;;;;;;;;5014399;28;45408;-79
2024/03/20 04:35:33;;;;;;;;;33.25;29.75;;;;;;;;5013630;28;45793;-79
2024/03/20 04:37:58;;;;;;;;;40.67;34.00;;;;;;;;5013854;28;47292;-79
2024/03/20 04:40:24;;;;;;;;;38.33;34.33;;;;;;;;5011900;28;45341;-79
2024/03/20 04:42:49;;;;;;;;;38.50;32.00;;;;;;;;5031783;28;45531;-79
2024/03/20 04:45:14;;;;;;;;;32.00;31.67;;;;;;;;5032331;28;45468;-78
2024/03/20 04:47:39;;;;;;;;;29.33;28.00;;;;;;;;5033168;28;45209;-79
2024/03/20 04:50:06;;;;;;;;;34.00;32.25;;;;;;;;5013196;28;45924;-79
2024/03/20 04:52:31;;;;;;;;;28.67;28.00;;;;;;;;5032320;28;45335;-79
2024/03/20 04:54:56;;;;;;;;;30.00;30.00;;;;;;;;5030995;28;45144;-79
2024/03/20 04:57:24;;;;;;;;;26.67;26.67;;;;;;;;5024613;28;46329;-79
2024/03/20 04:59:49;;;;;;;;;29.00;28.33;;;;;;;;4995976;28;45368;-78
2024/03/20 05:02:15;;;;;;;;;31.33;29.33;;;;;;;;5016247;28;45311;-79
2024/03/20 05:04:40;;;;;;;;;23.33;23.00;;;;;;;;4996340;28;46130;-79
2024/03/20 05:07:05;;;;;;;;;34.00;30.67;;;;;;;;4992556;28;46962;-79
2024/03/20 05:09:30;;;;;;;;;31.00;30.00;;;;;;;;5012601;28;45519;-79
2024/03/20 05:11:56;;;;;;;;;33.00;28.67;;;;;;;;5012582;28;45337;-79
2024/03/20 05:14:21;;;;;;;;;29.00;28.67;;;;;;;;5011236;28;45320;-79
2024/03/20 05:16:46;;;;;;;;;27.33;25.00;;;;;;;;4996664;28;48018;-79
2024/03/20 05:19:11;;;;;;;;;29.00;25.33;;;;;;;;4989420;28;45378;-79
2024/03/20 05:21:36;;;;;;;;;29.33;28.33;;;;;;;;5010375;28;45380;-79
2024/03/20 05:24:02;;;;;;;;;30.67;28.33;;;;;;;;4992026;28;46276;-79
2024/03/20 05:26:27;;;;;;;;;23.33;23.00;;;;;;;;5013758;28;45306;-79
2024/03/20 05:28:52;;;;;;;;;29.33;28.00;;;;;;;;4985569;28;45335;-79
2024/03/20 05:31:27;;;;;;;;;25.33;25.00;;;;;;;;4990057;28;45282;-79
2024/03/20 05:33:52;;;;;;;;;26.00;26.00;;;;;;;;4994331;28;47188;-79
2024/03/20 05:36:17;;;;;;;;;29.00;27.00;;;;;;;;5010630;28;45523;-79
2024/03/20 05:38:43;;;;;;;;;26.33;25.33;;;;;;;;5013319;28;45319;-79
2024/03/20 05:41:08;;;;;;;;;27.00;26.33;;;;;;;;5012261;28;45803;-79
2024/03/20 05:43:34;;;;;;;;;26.33;24.67;;;;;;;;4994086;28;46113;-79
2024/03/20 05:45:59;;;;;;;;;27.33;26.33;;;;;;;;5010359;28;45333;-79
2024/03/20 05:48:24;;;;;;;;;34.67;30.67;;;;;;;;5011367;28;45465;-78
2024/03/20 05:50:50;;;;;;;;;29.67;29.67;;;;;;;;5006600;28;45407;-79
2024/03/20 05:53:15;;;;;;;;;30.00;28.33;;;;;;;;5011837;28;45473;-79
2024/03/20 05:55:40;;;;;;;;;34.00;31.00;;;;;;;;4991291;28;46882;-79
2024/03/20 05:58:06;;;;;;;;;34.00;31.33;;;;;;;;5029404;28;45380;-79
2024/03/20 06:00:31;;;;;;;;;35.00;31.67;;;;;;;;5032050;28;45285;-79
2024/03/20 06:02:57;;;;;;;;;34.33;32.00;;;;;;;;4997142;28;46810;-79
2024/03/20 06:05:22;;;;;;;;;29.33;28.67;;;;;;;;5014951;28;45452;-79
2024/03/20 06:07:47;;;;;;;;;31.00;30.00;;;;;;;;4996091;28;45240;-79
2024/03/20 06:10:12;;;;;;;;;29.67;28.67;;;;;;;;5013571;28;45393;-79
2024/03/20 06:12:38;;;;;;;;;27.00;26.00;;;;;;;;4994610;28;46692;-79
2024/03/20 06:15:03;;;;;;;;;29.33;27.67;;;;;;;;4983573;28;47216;-79
2024/03/20 06:17:28;;;;;;;;;33.33;29.00;;;;;;;;5006250;28;45178;-79
2024/03/20 06:19:56;;;;;;;;;29.67;26.67;;;;;;;;5001024;28;45155;-79
2024/03/20 06:22:21;;;;;;;;;28.33;26.00;;;;;;;;4984632;28;46395;-79
2024/03/20 06:24:46;;;;;;;;;32.00;30.00;;;;;;;;4982678;28;45951;-79
2024/03/20 06:27:11;;;;;;;;;33.67;29.33;;;;;;;;4984080;28;45959;-79
2024/03/20 06:29:36;;;;;;;;;32.00;31.67;;;;;;;;5005865;28;45336;-78
2024/03/20 06:32:01;;;;;;;;;32.00;30.67;;;;;;;;4985710;28;45900;-79
2024/03/20 06:34:27;;;;;;;;;33.33;30.00;;;;;;;;4982749;28;48358;-78
2024/03/20 06:36:52;;;;;;;;;30.33;30.00;;;;;;;;5000677;28;45340;-79
2024/03/20 06:39:17;;;;;;;;;26.67;25.67;;;;;;;;5000535;28;45555;-79
2024/03/20 06:41:43;;;;;;;;;29.67;29.67;;;;;;;;5002106;28;45601;-79
2024/03/20 06:44:09;;;;;;;;;34.33;33.00;;;;;;;;5002583;28;46090;-78
2024/03/20 06:46:34;;;;;;;;;33.00;32.00;;;;;;;;5002211;28;45384;-78
2024/03/20 06:49:01;;;;;;;;;29.67;29.33;;;;;;;;4986602;28;45263;-78
2024/03/20 06:51:32;;;;;;;;;24.67;24.00;;;;;;;;5002346;28;45459;-79
2024/03/20 06:53:57;;;;;;;;;31.67;30.67;;;;;;;;5002650;28;45485;-79
2024/03/20 06:56:22;;;;;;;;;37.67;33.33;;;;;;;;5001849;28;45325;-79
2024/03/20 06:58:47;;;;;;;;;37.33;34.00;;;;;;;;5000047;28;45532;-78
2024/03/20 07:01:12;;;;;;;;;28.00;27.00;;;;;;;;5000167;28;45460;-78
2024/03/20 07:03:38;;;;;;;;;33.33;32.00;;;;;;;;4983095;28;47299;-78
2024/03/20 07:06:03;;;;;;;;;32.33;32.00;;;;;;;;5000130;28;45617;-78
2024/03/20 07:08:30;;;;;;;;;32.00;29.67;;;;;;;;5000134;28;45317;-78
2024/03/20 07:10:55;;;;;;;;;30.67;29.33;;;;;;;;4981751;28;45259;-78
2024/03/20 07:13:20;;;;;;;;;32.33;31.00;;;;;;;;4999535;28;45267;-78
2024/03/20 07:15:46;;;;;;;;;32.00;30.67;;;;;;;;4999586;28;45389;-78
2024/03/20 07:18:11;;;;;;;;;31.33;28.00;;;;;;;;4982133;28;45343;-77
2024/03/20 07:20:36;;;;;;;;;32.67;31.33;;;;;;;;5000630;28;45659;-80
2024/03/20 07:23:01;;;;;;;;;30.67;29.00;;;;;;;;4984813;28;47414;-77
2024/03/20 07:25:27;;;;;;;;;32.33;31.33;;;;;;;;5000775;28;45313;-76
2024/03/20 07:27:55;;;;;;;;;32.33;31.33;;;;;;;;5000654;28;45299;-77
2024/03/20 07:30:20;;;;;;;;;39.00;33.33;;;;;;;;4999479;28;45330;-77
2024/03/20 07:32:46;;;;;;;;;37.25;33.75;;;;;;;;4998809;28;46828;-80
2024/03/20 07:35:12;;;;;;;;;36.33;33.00;;;;;;;;4985579;28;45407;-78
2024/03/20 07:37:38;;;;;;;;;33.33;32.33;;;;;;;;5004574;28;45337;-77
2024/03/20 07:40:04;;;;;;;;;37.00;34.00;;;;;;;;5024199;28;45596;-76
2024/03/20 07:42:29;;;;;;;;;35.67;32.67;;;;;;;;5019892;28;45937;-75
2024/03/20 07:44:56;;;;;;;;;36.00;33.00;;;;;;;;5019049;28;45523;-74
2024/03/20 07:47:21;;;;;;;;;31.67;28.67;;;;;;;;5019343;28;45229;-75
2024/03/20 07:49:46;;;;;;;;;36.33;31.00;;;;;;;;5000939;28;46975;-75
2024/03/20 07:52:11;;;;;;;;;26.67;26.67;;;;;;;;5001607;28;48091;-75
2024/03/20 07:54:37;;;;;;;;;32.33;31.00;;;;;;;;5019183;28;45355;-75
2024/03/20 07:57:02;;;;;;;;;33.67;29.67;;;;;;;;5018841;28;45657;-75
2024/03/20 07:59:27;;;;;;;;;29.00;27.33;;;;;;;;5018947;28;45265;-75
2024/03/20 08:01:52;;;;;;;;;32.33;30.00;;;;;;;;5001345;28;47026;-75
2024/03/20 08:04:18;;;;;;;;;35.00;30.67;;;;;;;;5022517;28;45146;-75
2024/03/20 08:06:44;;;;;;;;;28.33;28.33;;;;;;;;5004804;28;45181;-76
2024/03/20 08:09:09;;;;;;;;;29.67;28.67;;;;;;;;5022238;28;45313;-76
2024/03/20 08:11:35;;;;;;;;;31.67;29.33;;;;;;;;5021991;28;45403;-75
2024/03/20 08:14:07;;;;;;;;;30.33;29.67;;;;;;;;5006304;28;45340;-75
2024/03/20 08:16:33;;;;;;;;;30.33;29.33;;;;;;;;5026687;28;45309;-77
2024/03/20 08:19:00;;;;;;;;;24.00;23.00;;;;;;;;5022413;28;45451;-76
2024/03/20 08:21:26;;;;;;;;;26.33;25.67;;;;;;;;5005363;28;47162;-76
2024/03/20 08:23:52;;;;;;;;;28.33;28.00;;;;;;;;5004438;28;45348;-76
2024/03/20 08:26:17;;;;;;;;;25.33;23.33;;;;;;;;5025469;28;45360;-77
2024/03/20 08:28:42;;;;;;;;;27.00;26.33;;;;;;;;5008255;28;46452;-76
2024/03/20 08:31:08;;;;;;;;;30.33;28.00;;;;;;;;5023597;28;45243;-76
2024/03/20 08:33:33;;;;;;;;;28.67;26.67;;;;;;;;5022257;28;45380;-77
2024/03/20 08:35:59;;;;;;;;;23.33;23.33;;;;;;;;5028012;28;45349;-78
2024/03/20 08:38:25;;;;;;;;;28.33;27.00;;;;;;;;5022757;28;45389;-78
2024/03/20 08:40:50;;;;;;;;;27.33;25.33;;;;;;;;5017770;28;45293;-78
2024/03/20 08:43:15;;;;;;;;;27.33;24.33;;;;;;;;4983505;28;45364;-78
2024/03/20 08:45:41;;;;;;;;;25.00;24.00;;;;;;;;5001618;28;45346;-78
2024/03/20 08:48:07;;;;;;;;;19.33;16.67;;;;;;;;5001674;28;45386;-77
2024/03/20 08:50:32;;;;;;;;;22.67;22.00;;;;;;;;5003002;28;45464;-77
2024/03/20 08:52:57;;;;;;;;;25.33;24.33;;;;;;;;4992610;28;44831;-76
2024/03/20 08:55:23;;;;;;;;;21.67;21.67;;;;;;;;5017690;28;45587;-77
2024/03/20 08:57:48;;;;;;;;;27.00;25.00;;;;;;;;5023674;28;45250;-77
2024/03/20 09:00:13;;;;;;;;;22.33;21.33;;;;;;;;5018494;28;46219;-76
2024/03/20 09:02:38;;;;;;;;;21.67;19.67;;;;;;;;5005100;28;45327;-75
2024/03/20 09:05:04;;;;;;;;;21.00;19.33;;;;;;;;4984775;28;45223;-78
2024/03/20 09:07:29;;;;;;;;;17.00;16.00;;;;;;;;5007785;28;45456;-76
2024/03/20 09:09:54;;;;;;;;;16.33;15.67;;;;;;;;5001624;28;45391;-78
2024/03/20 09:12:20;;;;;;;;;12.67;11.00;;;;;;;;5016049;28;45527;-78
2024/03/20 09:14:45;;;;;;;;;14.33;13.33;;;;;;;;5001674;28;45360;-76
2024/03/20 09:17:10;;;;;;;;;12.33;12.00;;;;;;;;4984638;28;47396;-78
2024/03/20 09:19:35;;;;;;;;;18.67;14.33;;;;;;;;5002967;28;45414;-79
2024/03/20 09:22:00;;;;;;;;;13.33;13.33;;;;;;;;5001340;28;45353;-79
2024/03/20 09:24:26;;;;;;;;;10.00;9.33;;;;;;;;5001392;28;45365;-78
2024/03/20 09:26:51;;;;;;;;;14.00;13.33;;;;;;;;5000993;28;45468;-78
2024/03/20 09:29:17;;;;;;;;;10.00;10.00;;;;;;;;4984030;28;47032;-77
2024/03/20 09:31:43;;;;;;;;;13.00;12.33;;;;;;;;5001326;28;45321;-77
2024/03/20 09:34:08;;;;;;;;;14.67;13.33;;;;;;;;5001007;28;46357;-77
2024/03/20 09:36:33;;;;;;;;;15.33;14.00;;;;;;;;5001294;28;45440;-77
2024/03/20 09:38:58;;;;;;;;;8.67;8.67;;;;;;;;4983120;28;48190;-77
2024/03/20 09:41:24;;;;;;;;;17.33;14.00;;;;;;;;4982251;28;45729;-77
2024/03/20 09:43:52;;;;;;;;;10.00;10.00;;;;;;;;4983223;28;45646;-77
2024/03/20 09:46:19;;;;;;;;;10.00;10.00;;;;;;;;4983680;28;47052;-77
2024/03/20 09:48:45;;;;;;;;;14.00;12.00;;;;;;;;4982141;28;47968;-78
2024/03/20 09:51:10;;;;;;;;;10.00;10.00;;;;;;;;5004969;28;45611;-77
2024/03/20 09:53:35;;;;;;;;;12.00;12.00;;;;;;;;5005174;28;45301;-78
2024/03/20 09:56:09;;;;;;;;;10.67;8.67;;;;;;;;5009691;28;45297;-77
2024/03/20 09:58:36;;;;;;;;;11.33;10.00;;;;;;;;5003465;28;47394;-78
2024/03/20 10:01:01;;;;;;;;;12.33;10.67;;;;;;;;5011224;28;45461;-78
2024/03/20 10:03:26;;;;;;;;;14.00;13.00;;;;;;;;4992304;28;45366;-78
2024/03/20 10:05:52;;;;;;;;;14.00;11.67;;;;;;;;5009081;28;45317;-79
2024/03/20 10:08:17;;;;;;;;;9.33;9.33;;;;;;;;4993625;28;46939;-78
2024/03/20 10:10:43;;;;;;;;;14.33;11.67;;;;;;;;5011843;28;45445;-77
2024/03/20 10:13:11;;;;;;;;;11.00;9.33;;;;;;;;5010936;28;45289;-77
2024/03/20 10:15:37;;;;;;;;;10.00;10.00;;;;;;;;4969058;28;46248;-77
2024/03/20 10:18:03;;;;;;;;;9.00;8.00;;;;;;;;4991759;28;45804;-77
2024/03/20 10:20:28;;;;;;;;;7.33;7.33;;;;;;;;5003414;28;45234;-78
2024/03/20 10:22:54;;;;;;;;;10.33;10.00;;;;;;;;5008580;28;45475;-78
2024/03/20 10:25:21;;;;;;;;;7.00;7.00;;;;;;;;5016812;28;45432;-78
2024/03/20 10:27:48;;;;;;;;;7.00;6.33;;;;;;;;5027266;28;45392;-78
2024/03/20 10:30:16;;;;;;;;;7.00;7.00;;;;;;;;5007462;28;45864;-79
2024/03/20 10:32:46;;;;;;;;;8.67;7.67;;;;;;;;5023839;28;45506;-79
2024/03/20 10:35:13;;;;;;;;;7.67;7.00;;;;;;;;5004543;28;46877;-77
2024/03/20 10:37:40;;;;;;;;;6.00;6.00;;;;;;;;5004996;28;47732;-78
2024/03/20 10:40:07;;;;;;;;;11.00;9.67;;;;;;;;5026123;28;45318;-78
2024/03/20 10:42:32;;;;;;;;;8.00;8.00;;;;;;;;5028582;28;45309;-76
2024/03/20 10:44:58;;;;;;;;;7.00;7.00;;;;;;;;5023842;28;45397;-75
2024/03/20 10:47:24;;;;;;;;;10.00;8.00;;;;;;;;5011416;28;46295;-75
2024/03/20 10:49:49;;;;;;;;;8.33;8.33;;;;;;;;5004713;28;45217;-75
2024/03/20 10:52:17;;;;;;;;;12.00;12.00;;;;;;;;5003809;28;45328;-74
2024/03/20 10:54:44;;;;;;;;;10.67;10.67;;;;;;;;5004377;28;45396;-75
2024/03/20 10:57:10;;;;;;;;;8.67;8.67;;;;;;;;5009718;28;45325;-76
2024/03/20 10:59:36;;;;;;;;;7.67;7.67;;;;;;;;5024367;28;44698;-77
2024/03/20 11:02:03;;;;;;;;;10.67;9.67;;;;;;;;5028271;28;45266;-77
2024/03/20 11:04:33;;;;;;;;;8.00;8.00;;;;;;;;5024633;28;45320;-77
2024/03/20 11:06:58;;;;;;;;;8.00;8.00;;;;;;;;5024691;28;45401;-76
2024/03/20 11:09:26;;;;;;;;;6.67;6.67;;;;;;;;5003151;28;45339;-77
2024/03/20 11:11:52;;;;;;;;;4.00;4.00;;;;;;;;5001871;28;45318;-77
2024/03/20 11:14:23;;;;;;;;;2.00;2.00;;;;;;;;5019746;28;45514;-76
2024/03/20 11:16:49;;;;;;;;;2.50;2.50;;;;;;;;5006006;28;46223;-76
2024/03/20 11:19:14;;;;;;;;;3.33;3.33;;;;;;;;4982262;28;45452;-76
2024/03/20 11:21:39;;;;;;;;;2.50;2.00;;;;;;;;4999478;28;45356;-76
2024/03/20 11:24:05;;;;;;;;;1.00;1.00;;;;;;;;4999515;28;45269;-76
2024/03/20 11:26:31;;;;;;;;;0.75;0.75;;;;;;;;4999477;28;47115;-76
2024/03/20 11:28:57;;;;;;;;;1.75;1.75;;;;;;;;4982060;28;45424;-77
2024/03/20 11:31:22;;;;;;;;;1.00;1.00;;;;;;;;4999980;28;45311;-77
2024/03/20 11:33:48;;;;;;;;;0.25;0.25;;;;;;;;4982312;28;47460;-77
2024/03/20 11:36:13;;;;;;;;;1.00;1.00;;;;;;;;4981601;28;47154;-77
2024/03/20 11:38:38;;;;;;;;;0.00;0.00;;;;;;;;4999934;28;45219;-77
2024/03/20 11:41:04;;;;;;;;;1.75;1.75;;;;;;;;5000182;28;45213;-77
2024/03/20 11:43:31;;;;;;;;;2.25;2.25;;;;;;;;5000862;28;45328;-77
2024/03/20 11:45:56;;;;;;;;;0.25;0.25;;;;;;;;4971821;28;47569;-77
2024/03/20 11:48:21;;;;;;;;;2.75;0.75;;;;;;;;4978003;28;45386;-78
2024/03/20 11:50:48;;;;;;;;;0.50;0.50;;;;;;;;4993419;28;45286;-76
2024/03/20 11:53:13;;;;;;;;;1.00;1.00;;;;;;;;4980842;28;47341;-76
2024/03/20 11:55:39;;;;;;;;;2.00;2.00;;;;;;;;5000592;28;45504;-79
2024/03/20 11:58:04;;;;;;;;;1.00;1.00;;;;;;;;5005161;28;45353;-78
2024/03/20 12:01:12;;;;;;;;;;;;;;;;;;;;;
2024/03/20 12:03:38;;;;;;;;;3.00;3.00;;;;;;;;4922153;28;72950;-77
2024/03/20 12:06:07;;;;;;;;;2.50;1.50;;;;;;;;5001617;28;45306;-77
2024/03/20 12:08:32;;;;;;;;;7.00;6.00;;;;;;;;5003364;28;45306;-77
2024/03/20 12:10:57;;;;;;;;;4.50;4.00;;;;;;;;5000806;28;45435;-77
2024/03/20 12:13:22;;;;;;;;;26.67;24.33;;;;;;;;4998834;28;45369;-77
2024/03/20 12:15:48;;;;;;;;;5.00;5.00;;;;;;;;4977812;28;47162;-78
2024/03/20 12:18:13;;;;;;;;;3.25;2.75;;;;;;;;5000780;28;45683;-77
2024/03/20 12:20:38;;;;;;;;;1.25;1.25;;;;;;;;5000726;28;45400;-79
2024/03/20 12:23:07;;;;;;;;;3.25;3.25;;;;;;;;5001093;28;45361;-78
2024/03/20 12:25:32;;;;;;;;;3.75;3.00;;;;;;;;5001141;28;47221;-77
2024/03/20 12:27:57;;;;;;;;;5.00;5.00;;;;;;;;5003692;28;45295;-77
2024/03/20 12:30:24;;;;;;;;;5.00;4.75;;;;;;;;4999069;28;45388;-77
2024/03/20 12:32:49;;;;;;;;;3.00;2.00;;;;;;;;4984079;28;46205;-76
2024/03/20 12:35:14;;;;;;;;;40.67;32.67;;;;;;;;4982818;28;48080;-78
2024/03/20 12:37:40;;;;;;;;;12.00;11.25;;;;;;;;4992811;28;45356;-77
2024/03/20 12:40:06;;;;;;;;;5.00;5.00;;;;;;;;5002847;28;45399;-77
2024/03/20 12:42:31;;;;;;;;;3.75;3.75;;;;;;;;4999189;28;45372;-78
2024/03/20 12:44:56;;;;;;;;;3.75;3.75;;;;;;;;4999953;28;46358;-79
2024/03/20 12:47:21;;;;;;;;;3.00;3.00;;;;;;;;4981846;28;45509;-77
2024/03/20 12:49:49;;;;;;;;;8.00;8.00;;;;;;;;5004174;28;45441;-76
2024/03/20 12:52:14;;;;;;;;;4.50;4.50;;;;;;;;5009045;28;45528;-76
2024/03/20 12:54:39;;;;;;;;;6.50;6.50;;;;;;;;5010681;28;45381;-77
2024/03/20 12:57:05;;;;;;;;;11.25;10.75;;;;;;;;5011809;28;45360;-75
2024/03/20 12:59:30;;;;;;;;;14.50;12.00;;;;;;;;5023983;28;45256;-76
2024/03/20 13:01:56;;;;;;;;;6.00;5.75;;;;;;;;5005589;28;45994;-75
2024/03/20 13:04:21;;;;;;;;;5.75;3.25;;;;;;;;5014339;28;46760;-78
2024/03/20 13:06:47;;;;;;;;;13.33;12.67;;;;;;;;5004539;28;45236;-78
2024/03/20 13:09:13;;;;;;;;;12.25;12.25;;;;;;;;5006878;28;45230;-77
2024/03/20 13:11:38;;;;;;;;;2.00;2.00;;;;;;;;5002618;28;45270;-78
2024/03/20 13:14:04;;;;;;;;;4.00;3.00;;;;;;;;5001895;28;45214;-78
2024/03/20 13:16:29;;;;;;;;;2.00;2.00;;;;;;;;4984383;28;46037;-78
2024/03/20 13:18:58;;;;;;;;;2.50;2.50;;;;;;;;4984751;28;45269;-79
2024/03/20 13:21:28;;;;;;;;;1.00;1.00;;;;;;;;5002696;28;45404;-78
2024/03/20 13:24:00;;;;;;;;;2.00;2.00;;;;;;;;4982543;28;48099;-78
2024/03/20 13:26:36;;;;;;;;;3.00;2.75;;;;;;;;4983248;28;45343;-78
2024/03/20 13:29:04;;;;;;;;;3.50;3.50;;;;;;;;4982545;28;45273;-78
2024/03/20 13:31:31;;;;;;;;;13.25;11.50;;;;;;;;4983070;28;46001;-78
2024/03/20 13:33:57;;;;;;;;;4.00;4.00;;;;;;;;5001030;28;45411;-78
2024/03/20 13:36:23;;;;;;;;;5.25;5.00;;;;;;;;5001465;28;45380;-79
2024/03/20 13:39:08;;;;;;;;;4.50;4.00;;;;;;;;5001607;28;45333;-78
2024/03/20 13:41:45;;;;;;;;;2.50;2.50;;;;;;;;5001253;28;46030;-78
2024/03/20 13:44:13;;;;;;;;;2.25;2.00;;;;;;;;5001266;28;46485;-78
2024/03/20 13:46:46;;;;;;;;;2.75;2.75;;;;;;;;4983607;28;45192;-78
2024/03/20 13:49:11;;;;;;;;;2.75;2.75;;;;;;;;5001504;28;45267;-79
2024/03/20 13:51:37;;;;;;;;;1.00;1.00;;;;;;;;5001316;28;45322;-78
2024/03/20 13:54:03;;;;;;;;;3.75;3.75;;;;;;;;5001486;28;45214;-79
2024/03/20 13:56:28;;;;;;;;;2.00;2.00;;;;;;;;5001244;28;45361;-78
2024/03/20 13:58:54;;;;;;;;;2.50;2.50;;;;;;;;5003066;28;45419;-77
2024/03/20 14:01:20;;;;;;;;;6.50;6.50;;;;;;;;5020349;28;45359;-78
2024/03/20 14:03:48;;;;;;;;;40.33;32.33;;;;;;;;5002951;28;48673;-78
2024/03/20 14:06:25;;;;;;;;;19.25;17.25;;;;;;;;5020801;28;45363;-78
2024/03/20 14:08:50;;;;;;;;;3.00;3.00;;;;;;;;5021029;28;45254;-79
2024/03/20 14:11:17;;;;;;;;;2.00;2.00;;;;;;;;5002907;28;47409;-78
2024/03/20 14:13:43;;;;;;;;;2.00;2.00;;;;;;;;5019527;28;45343;-78
2024/03/20 14:16:11;;;;;;;;;3.00;3.00;;;;;;;;5020953;28;45344;-78